Midland, Missouri
Current Conditions -  °F | °C
As of 11:55 AM on Friday 24 Oct 2014 (Local Time) from KIRK Reporting Station
Haze Haze  
Wind Chill: 60°   Ceiling: 200
Heat Index: 60°   Visibility: 0.75mi
Dew Point: 60°   Wind: 10mph
Humidity: 100%   Direction: 170°S
Pressure: 30.07"   Gusts: NA
Location:  40.2969°N, 92.7524°W
Report Text: KIRK 241655Z AUTO 17009KT 3/4SM BR OVC002 16/16 A3007 RMK AO2 SLP183 T01560156
Loading
Personal Weather Stations






























Interactive Weather Map New forecast layout! Learn more

10-Day Weather Forecast

Advertisements
Track Severe Weather on mobile